Time;durP1;ratioP1;P1;durP2;ratioP2;P2;SDS_P1;SDS_P2;PMS_P1;PMS_P2;Temp;Humidity;BMP_temperature;BMP_pressure;BME280_temperature;BME280_humidity;BME280_pressure;Samples;Min_cycle;Max_cycle;Signal;HPM_P1;HPM_P2
2023/06/11 00:01:56;;;;;;;10.00;4.60;;;;;;;-144.47;47.30;52613.78;5018371;28;20589;-65
2023/06/11 00:04:25;;;;;;;12.95;5.20;;;;;;;-144.47;47.44;52629.69;5012574;28;20037;-65
2023/06/11 00:06:56;;;;;;;10.25;5.13;;;;;;;-144.47;47.69;52603.84;5011740;28;20030;-65
2023/06/11 00:09:25;;;;;;;13.52;4.57;;;;;;;-144.47;47.76;52595.91;5011604;28;20105;-66
2023/06/11 00:11:53;;;;;;;9.10;4.78;;;;;;;-144.47;47.88;52605.84;5012627;28;20561;-65
2023/06/11 00:14:19;;;;;;;10.18;5.07;;;;;;;-144.47;48.11;52629.69;5010972;28;20391;-66
2023/06/11 00:16:45;;;;;;;13.02;5.07;;;;;;;-144.47;48.26;52613.78;5013346;28;20030;-66
2023/06/11 00:19:11;;;;;;;12.50;5.40;;;;;;;-144.47;48.51;52605.84;5012156;28;20022;-65
2023/06/11 00:21:43;;;;;;;9.73;5.40;;;;;;;-144.47;48.98;52619.75;5010270;28;20022;-64
2023/06/11 00:24:12;;;;;;;10.82;5.28;;;;;;;-144.47;49.53;52607.84;5012612;28;20169;-64
2023/06/11 00:26:38;;;;;;;11.25;4.82;;;;;;;-144.47;49.64;52597.91;5011815;28;20034;-65
2023/06/11 00:29:04;;;;;;;12.88;5.70;;;;;;;-144.47;49.87;52601.88;5012407;28;20022;-66
2023/06/11 00:31:30;;;;;;;14.95;5.97;;;;;;;-144.47;50.28;52599.88;5011614;28;20026;-65
2023/06/11 00:33:55;;;;;;;13.40;5.43;;;;;;;-144.47;50.54;52609.81;5012791;28;20037;-65
2023/06/11 00:36:20;;;;;;;8.88;4.95;;;;;;;-144.47;50.66;52605.84;5013017;28;20042;-63
2023/06/11 00:38:46;;;;;;;10.38;5.50;;;;;;;-144.47;50.82;52621.72;5013698;28;20068;-65
2023/06/11 00:41:11;;;;;;;11.73;5.28;;;;;;;-144.47;50.74;52629.69;5012682;28;20021;-66
2023/06/11 00:43:38;;;;;;;12.50;5.28;;;;;;;-144.47;50.98;52611.81;5011090;28;20038;-65
2023/06/11 00:46:10;;;;;;;11.40;5.30;;;;;;;-144.47;51.11;52643.56;5011783;28;20400;-64
2023/06/11 00:48:36;;;;;;;8.25;5.05;;;;;;;-144.47;51.37;52637.63;5011889;28;20189;-64
2023/06/11 00:51:02;;;;;;;13.27;5.28;;;;;;;-144.47;51.27;52593.94;5012137;28;20022;-65
2023/06/11 00:53:28;;;;;;;9.50;5.07;;;;;;;-144.47;51.39;52595.91;5004975;28;20033;-63
2023/06/11 00:55:53;;;;;;;13.43;5.55;;;;;;;-144.47;51.28;52623.72;5011791;28;20037;-64
2023/06/11 00:58:20;;;;;;;11.32;5.18;;;;;;;-144.47;51.37;52603.84;5012417;28;20030;-62
2023/06/11 01:00:49;;;;;;;11.45;5.35;;;;;;;-144.47;51.32;52609.81;5011961;28;20014;-65
2023/06/11 01:03:17;;;;;;;20.40;5.72;;;;;;;-144.47;51.26;52607.84;5012018;28;20041;-64
2023/06/11 01:06:01;;;;;;;11.32;5.43;;;;;;;-144.47;50.97;52647.56;5011457;28;20025;-64
2023/06/11 01:08:34;;;;;;;12.38;5.70;;;;;;;-144.47;50.93;52607.84;5012169;28;20030;-65
2023/06/11 01:11:01;;;;;;;14.93;4.78;;;;;;;-144.47;51.00;52609.81;5011158;28;20025;-65
2023/06/11 01:13:27;;;;;;;12.38;5.22;;;;;;;-144.47;50.72;52617.75;5010896;28;20025;-64
2023/06/11 01:16:04;;;;;;;9.57;5.28;;;;;;;-144.47;51.14;52597.91;5011861;28;20017;-63
2023/06/11 01:18:37;;;;;;;16.00;5.82;;;;;;;-144.47;50.89;52601.88;5011747;28;20029;-65
2023/06/11 01:21:12;;;;;;;15.90;5.57;;;;;;;-144.47;50.81;52615.78;5011738;28;20060;-64
2023/06/11 01:23:53;;;;;;;14.63;6.00;;;;;;;-144.47;50.69;52613.78;5011489;28;20022;-64
2023/06/11 01:26:45;;;;;;;16.60;6.03;;;;;;;-144.47;50.52;52633.66;5011727;28;20033;-64
2023/06/11 01:29:14;;;;;;;15.05;5.15;;;;;;;-144.47;50.30;52611.81;5011356;28;20026;-64
2023/06/11 01:31:40;;;;;;;8.32;4.90;;;;;;;-144.47;50.06;52593.94;5011393;28;20025;-63
2023/06/11 01:34:08;;;;;;;11.35;5.38;;;;;;;-144.47;50.10;52629.69;5011397;28;20049;-63
2023/06/11 01:36:36;;;;;;;7.97;4.53;;;;;;;-144.47;49.65;52627.69;5011757;28;20056;-63
2023/06/11 01:39:05;;;;;;;16.20;5.40;;;;;;;-144.47;49.20;52637.63;5011624;28;20029;-64
2023/06/11 01:41:30;;;;;;;10.88;5.20;;;;;;;-144.47;49.36;52595.91;5011127;28;20450;-63
2023/06/11 01:43:56;;;;;;;13.27;5.45;;;;;;;-144.47;48.96;52625.72;5007247;28;20468;-63
2023/06/11 01:46:22;;;;;;;11.30;4.93;;;;;;;-144.47;49.11;52635.63;5007368;28;20018;-64
2023/06/11 01:48:47;;;;;;;20.50;5.90;;;;;;;-144.47;48.90;52615.78;5009973;28;20036;-64
2023/06/11 01:51:14;;;;;;;12.68;5.18;;;;;;;-144.47;48.63;52595.91;5011444;28;20022;-63
2023/06/11 01:53:40;;;;;;;9.23;4.78;;;;;;;-144.47;48.49;52613.78;5010999;28;20056;-64
2023/06/11 01:56:05;;;;;;;19.42;4.90;;;;;;;-144.47;48.96;52629.69;5011047;28;20026;-62
2023/06/11 01:58:32;;;;;;;10.82;4.90;;;;;;;-144.47;48.19;52603.84;5011035;28;20018;-64
2023/06/11 02:00:58;;;;;;;16.05;5.18;;;;;;;-144.47;48.04;52637.63;5011129;28;20025;-64
2023/06/11 02:03:23;;;;;;;8.90;4.40;;;;;;;-144.47;48.16;52613.78;5011381;28;20065;-65
2023/06/11 02:05:49;;;;;;;13.32;5.03;;;;;;;-144.47;48.11;52589.97;5010744;28;20506;-65
2023/06/11 02:08:14;;;;;;;11.20;4.63;;;;;;;-144.47;48.26;52615.78;5010033;28;20075;-61
2023/06/11 02:10:40;;;;;;;6.80;4.40;;;;;;;-144.47;48.42;52633.66;5010178;28;20101;-64
2023/06/11 02:13:05;;;;;;;10.15;5.15;;;;;;;-144.47;48.69;52605.84;5009140;28;20487;-63
2023/06/11 02:15:30;;;;;;;9.95;5.15;;;;;;;-144.47;48.84;52607.84;5010944;28;20115;-65
2023/06/11 02:17:56;;;;;;;15.68;5.18;;;;;;;-144.47;48.75;52613.78;5010849;28;20025;-64
2023/06/11 02:20:21;;;;;;;13.68;4.70;;;;;;;-144.47;48.88;52617.75;5010202;28;20017;-62
2023/06/11 02:22:47;;;;;;;11.18;5.40;;;;;;;-144.47;49.15;52615.78;5010383;28;20041;-64
2023/06/11 02:25:12;;;;;;;11.23;4.63;;;;;;;-144.47;49.32;52617.75;5010605;28;20055;-63
2023/06/11 02:27:37;;;;;;;17.98;4.05;;;;;;;-144.47;49.03;52580.03;5011081;28;20022;-63
2023/06/11 02:30:04;;;;;;;16.50;5.43;;;;;;;-144.47;49.02;52601.88;5011032;28;20033;-63
2023/06/11 02:32:30;;;;;;;11.05;5.03;;;;;;;-144.47;48.86;52629.69;5011150;28;20112;-65
2023/06/11 02:34:55;;;;;;;14.13;4.53;;;;;;;-144.47;49.02;52611.81;5010438;28;20498;-62
2023/06/11 02:37:20;;;;;;;9.52;4.60;;;;;;;-144.47;49.07;52617.75;5011094;28;20018;-63
2023/06/11 02:39:47;;;;;;;14.30;5.25;;;;;;;-144.47;48.96;52625.72;5010218;28;20132;-64
2023/06/11 02:42:12;;;;;;;9.32;4.78;;;;;;;-144.47;49.11;52627.69;5010398;28;20049;-63
2023/06/11 02:44:39;;;;;;;12.65;4.45;;;;;;;-144.47;48.93;52589.97;5006791;28;20030;-64
2023/06/11 02:47:05;;;;;;;11.55;4.70;;;;;;;-144.47;48.79;52605.84;5010786;28;20113;-64
2023/06/11 02:49:30;;;;;;;12.52;4.95;;;;;;;-144.47;48.29;52611.81;5010804;28;20100;-60
2023/06/11 02:51:56;;;;;;;10.73;4.90;;;;;;;-144.47;48.05;52613.78;5010340;28;20041;-64
2023/06/11 02:54:21;;;;;;;8.02;4.45;;;;;;;-144.47;47.84;52615.78;5003936;28;20101;-64
2023/06/11 02:56:46;;;;;;;19.75;4.78;;;;;;;-144.47;47.70;52593.94;5010494;28;20050;-65
2023/06/11 02:59:12;;;;;;;8.60;4.25;;;;;;;-144.47;47.71;52621.72;5011401;28;20112;-64
2023/06/11 03:01:38;;;;;;;9.52;4.30;;;;;;;-144.47;47.51;52603.84;5009481;28;20034;-64
2023/06/11 03:04:05;;;;;;;11.00;4.25;;;;;;;-144.47;47.62;52637.63;5009501;28;20021;-63
2023/06/11 03:06:31;;;;;;;19.27;4.43;;;;;;;-144.47;47.47;52603.84;5009870;28;20032;-62
2023/06/11 03:08:56;;;;;;;8.35;4.13;;;;;;;-144.47;47.22;52593.94;5008943;28;20022;-65
2023/06/11 03:11:22;;;;;;;9.68;3.92;;;;;;;-144.47;47.16;52639.59;5008265;28;20022;-63
2023/06/11 03:13:47;;;;;;;12.38;4.55;;;;;;;-144.47;46.96;52617.75;5009315;28;20033;-64
2023/06/11 03:16:13;;;;;;;11.00;4.97;;;;;;;-144.47;46.94;52593.94;5009919;28;20101;-62
2023/06/11 03:18:38;;;;;;;14.85;4.40;;;;;;;-144.47;46.68;52580.03;5009888;28;20520;-64
2023/06/11 03:21:04;;;;;;;7.18;3.38;;;;;;;-144.47;46.50;52635.63;5009316;28;20029;-63
2023/06/11 03:23:29;;;;;;;10.05;4.00;;;;;;;-144.47;46.18;52597.91;5008087;28;20026;-63
2023/06/11 03:25:55;;;;;;;9.32;4.13;;;;;;;-144.47;46.50;52611.81;5009559;28;20159;-64
2023/06/11 03:28:20;;;;;;;11.00;4.28;;;;;;;-144.47;46.02;52609.81;5008398;28;20129;-64
2023/06/11 03:30:45;;;;;;;8.10;4.22;;;;;;;-144.47;45.88;52613.78;5009416;28;20033;-65
2023/06/11 03:33:11;;;;;;;9.77;3.63;;;;;;;-144.47;46.24;52591.94;5010495;28;20029;-63
2023/06/11 03:35:36;;;;;;;9.43;3.83;;;;;;;-144.47;45.53;52605.84;5013066;28;20644;-64
2023/06/11 03:38:01;;;;;;;9.18;3.97;;;;;;;-144.47;45.59;52597.91;5013270;28;20050;-63
2023/06/11 03:40:27;;;;;;;12.00;4.82;;;;;;;-144.47;45.59;52635.63;5013178;28;20032;-64
2023/06/11 03:42:52;;;;;;;12.40;4.30;;;;;;;-144.47;45.63;52597.91;5013120;28;20021;-64
2023/06/11 03:45:17;;;;;;;7.95;4.05;;;;;;;-144.47;45.68;52615.78;5004851;28;20045;-64
2023/06/11 03:47:43;;;;;;;8.45;3.75;;;;;;;-144.47;45.80;52613.78;5012575;28;20030;-64
2023/06/11 03:50:09;;;;;;;8.00;3.72;;;;;;;-144.47;45.81;52619.75;5012280;28;20022;-61
2023/06/11 03:52:34;;;;;;;7.70;3.40;;;;;;;-144.47;45.74;52619.75;5012392;28;20046;-64
2023/06/11 03:54:59;;;;;;;14.85;4.53;;;;;;;-144.47;45.88;52605.84;5012694;28;20111;-64
2023/06/11 03:57:25;;;;;;;9.18;3.90;;;;;;;-144.47;45.60;52609.81;5013073;28;20068;-63
2023/06/11 03:59:50;;;;;;;11.45;4.20;;;;;;;-144.47;45.33;52615.78;5012756;28;20104;-62
2023/06/11 04:02:16;;;;;;;8.07;3.92;;;;;;;-144.47;45.34;52605.84;5013392;28;20492;-64
2023/06/11 04:04:41;;;;;;;7.35;3.58;;;;;;;-144.47;45.26;52621.72;5012507;28;20053;-63
2023/06/11 04:07:06;;;;;;;20.30;4.60;;;;;;;-144.47;44.91;52627.69;5012877;28;20033;-64
2023/06/11 04:09:32;;;;;;;12.55;4.10;;;;;;;-144.47;44.91;52629.69;5012786;28;20504;-66
2023/06/11 04:11:57;;;;;;;14.93;4.30;;;;;;;-144.47;45.07;52619.75;5011761;28;20033;-65
2023/06/11 04:14:23;;;;;;;8.27;3.75;;;;;;;-144.47;45.04;52633.66;5012552;28;20069;-64
2023/06/11 04:16:49;;;;;;;11.80;4.47;;;;;;;-144.47;45.04;52619.75;5013264;28;20052;-65
2023/06/11 04:19:15;;;;;;;11.80;3.72;;;;;;;-144.47;44.95;52615.78;5012659;28;20029;-63
2023/06/11 04:21:40;;;;;;;16.05;4.30;;;;;;;-144.47;44.57;52611.81;5012759;28;20045;-65
2023/06/11 04:24:06;;;;;;;7.45;4.43;;;;;;;-144.47;44.31;52617.75;5012476;28;20053;-64
2023/06/11 04:26:31;;;;;;;12.40;4.43;;;;;;;-144.47;44.28;52607.84;5012534;28;20034;-64
2023/06/11 04:28:57;;;;;;;7.72;3.88;;;;;;;-144.47;43.82;52595.91;5012864;28;20021;-63
2023/06/11 04:31:26;;;;;;;12.07;4.03;;;;;;;-144.47;43.98;52619.75;5012390;28;20092;-63
2023/06/11 04:34:02;;;;;;;;;;;;;;;-144.47;43.60;52633.66;5011078;28;20018;-65
2023/06/11 04:36:29;;;;;;;10.60;3.92;;;;;;;-144.47;43.81;52621.72;5012278;28;19989;-64
2023/06/11 04:38:55;;;;;;;7.78;3.95;;;;;;;-144.47;43.76;52611.81;5012875;28;20725;-64
2023/06/11 04:41:23;;;;;;;8.32;4.22;;;;;;;-144.47;43.82;52609.81;5024541;23;20054;-68
2023/06/11 04:43:49;;;;;;;6.50;3.63;;;;;;;-144.47;44.02;52623.72;5006762;28;20125;-69
2023/06/11 04:46:15;;;;;;;7.78;3.95;;;;;;;-144.47;43.84;52625.72;5006836;28;20061;-66
2023/06/11 04:48:41;;;;;;;10.50;3.97;;;;;;;-144.47;44.31;52597.91;5011872;28;20391;-67
2023/06/11 04:51:06;;;;;;;9.88;3.70;;;;;;;-144.47;44.08;52609.81;5010769;28;20483;-68
2023/06/11 04:53:36;;;;;;;10.43;3.88;;;;;;;-144.47;44.24;52595.91;5010392;28;20030;-72
2023/06/11 04:56:02;;;;;;;9.43;3.67;;;;;;;-144.47;43.91;52582.00;5010439;28;20026;-70
2023/06/11 04:58:30;;;;;;;9.25;3.95;;;;;;;-144.47;44.15;52597.91;5011985;28;20185;-68
2023/06/11 05:00:57;;;;;;;8.43;3.78;;;;;;;-144.47;44.04;52635.63;5009928;28;20042;-69
2023/06/11 05:03:24;;;;;;;9.27;3.90;;;;;;;-144.47;43.67;52629.69;5011053;28;20037;-68
2023/06/11 05:05:51;;;;;;;8.43;3.53;;;;;;;-144.47;43.85;52619.75;5011589;28;20105;-69
2023/06/11 05:08:24;;;;;;;9.77;3.40;;;;;;;-144.47;43.88;52609.81;5012196;28;20026;-69
2023/06/11 05:10:53;;;;;;;11.55;3.45;;;;;;;-144.47;43.84;52597.91;5011426;28;20380;-70
2023/06/11 05:13:25;;;;;;;;;;;;;;;-144.47;43.74;52609.81;5012013;28;20029;-70
2023/06/11 05:15:57;;;;;;;9.60;3.75;;;;;;;-144.47;44.01;52627.69;5011577;28;19909;-70
2023/06/11 05:18:25;;;;;;;8.15;3.55;;;;;;;-144.47;43.55;52601.88;5011722;28;20030;-69
2023/06/11 05:20:51;;;;;;;8.25;3.47;;;;;;;-144.47;43.46;52619.75;5011480;28;20080;-69
2023/06/11 05:23:18;;;;;;;11.60;4.43;;;;;;;-144.47;43.22;52617.75;5011714;28;20069;-71
2023/06/11 05:25:47;;;;;;;9.48;4.00;;;;;;;-144.47;43.42;52609.81;5011665;28;20022;-70
2023/06/11 05:28:15;;;;;;;;;;;;;;;-144.47;43.79;52617.75;5011599;28;20080;-72
2023/06/11 05:30:45;;;;;;;10.30;3.50;;;;;;;-144.47;43.46;52603.84;5011010;28;19913;-70
2023/06/11 05:33:11;;;;;;;9.98;3.60;;;;;;;-144.47;43.67;52593.94;5011394;28;20034;-70
2023/06/11 05:35:38;;;;;;;8.52;4.07;;;;;;;-144.47;43.12;52601.88;5011083;28;20026;-69
2023/06/11 05:38:06;;;;;;;11.13;3.72;;;;;;;-144.47;43.28;52621.72;5010930;28;20026;-69
2023/06/11 05:40:32;;;;;;;9.95;3.70;;;;;;;-144.47;43.45;52605.84;5011037;28;20026;-69
2023/06/11 05:42:57;;;;;;;10.80;4.00;;;;;;;-144.47;43.34;52601.88;5011290;28;20075;-69
2023/06/11 05:45:24;;;;;;;13.63;4.70;;;;;;;-144.47;42.95;52621.72;5010607;28;20041;-71
2023/06/11 05:47:50;;;;;;;8.25;4.10;;;;;;;-144.47;42.67;52613.78;5010730;28;20081;-69
2023/06/11 05:50:15;;;;;;;12.30;4.25;;;;;;;-144.47;42.91;52601.88;5006216;28;20034;-70
2023/06/11 05:52:40;;;;;;;18.23;4.40;;;;;;;-144.47;42.20;52613.78;5009198;28;20034;-71
2023/06/11 05:55:06;;;;;;;8.50;3.78;;;;;;;-144.47;42.89;52597.91;5004021;28;20033;-69
2023/06/11 05:57:31;;;;;;;11.93;3.85;;;;;;;-144.47;42.46;52605.84;5008869;28;20085;-69
2023/06/11 05:59:57;;;;;;;14.45;3.92;;;;;;;-144.47;42.25;52619.75;5009012;28;20029;-71
2023/06/11 06:02:22;;;;;;;14.85;4.32;;;;;;;-144.47;42.75;52631.66;5006636;28;20052;-70
2023/06/11 06:04:49;;;;;;;8.60;3.67;;;;;;;-144.47;42.30;52584.00;5004024;28;20096;-72
2023/06/11 06:07:15;;;;;;;8.73;3.75;;;;;;;-144.47;42.12;52603.84;5003469;28;20026;-71
2023/06/11 06:09:41;;;;;;;9.10;4.32;;;;;;;-144.47;42.48;52619.75;5011160;28;20033;-69
2023/06/11 06:12:09;;;;;;;11.60;4.20;;;;;;;-144.47;42.99;52611.81;5011668;28;20026;-71
2023/06/11 06:14:35;;;;;;;10.95;4.40;;;;;;;-144.47;42.99;52615.78;5010899;28;20026;-72
2023/06/11 06:17:00;;;;;;;9.18;4.45;;;;;;;-144.47;42.64;52621.72;5008584;28;20042;-70
2023/06/11 06:19:26;;;;;;;8.32;4.13;;;;;;;-144.47;42.42;52613.78;5010394;28;20083;-73
2023/06/11 06:21:51;;;;;;;11.60;4.68;;;;;;;-144.47;43.23;52615.78;5010092;28;20495;-72
2023/06/11 06:24:16;;;;;;;11.10;3.70;;;;;;;-144.47;42.54;52617.75;5021317;28;20393;-72
2023/06/11 06:26:42;;;;;;;7.07;4.10;;;;;;;-144.47;42.54;52609.81;5010204;28;20097;-72
2023/06/11 06:29:08;;;;;;;11.80;4.15;;;;;;;-144.47;42.59;52633.66;5004440;28;20124;-71
2023/06/11 06:31:36;;;;;;;12.00;4.10;;;;;;;-144.47;42.97;52617.75;5004324;28;20022;-70
2023/06/11 06:34:02;;;;;;;7.80;4.20;;;;;;;-144.47;42.77;52603.84;5008637;28;20129;-71
2023/06/11 06:36:27;;;;;;;13.77;4.05;;;;;;;-144.47;42.79;52621.72;5009815;28;20030;-70
2023/06/11 06:38:53;;;;;;;14.90;4.28;;;;;;;-144.47;42.92;52617.75;5009843;28;20033;-71
2023/06/11 06:41:18;;;;;;;11.10;4.10;;;;;;;-144.47;43.22;52613.78;5003321;28;20135;-71
2023/06/11 06:43:43;;;;;;;10.57;3.95;;;;;;;-144.47;42.60;52639.59;5001481;28;20025;-69
2023/06/11 06:46:09;;;;;;;12.15;4.18;;;;;;;-144.47;43.06;52605.84;5008818;28;20033;-68
2023/06/11 06:48:34;;;;;;;11.32;4.20;;;;;;;-144.47;43.22;52633.66;5003224;28;20033;-69
2023/06/11 06:51:00;;;;;;;9.38;4.80;;;;;;;-144.47;43.74;52617.75;5009702;28;20612;-69
2023/06/11 06:53:26;;;;;;;9.65;4.05;;;;;;;-144.47;43.03;52635.63;5007810;28;20530;-71
2023/06/11 06:55:51;;;;;;;13.30;4.05;;;;;;;-144.47;43.51;52613.78;5006974;28;20036;-74
2023/06/11 06:58:16;;;;;;;8.90;4.22;;;;;;;-144.47;43.50;52603.84;5008746;28;20022;-71
2023/06/11 07:00:42;;;;;;;9.80;3.75;;;;;;;-144.47;42.75;52615.78;5009058;28;20032;-70
2023/06/11 07:03:09;;;;;;;8.70;4.63;;;;;;;-144.47;42.93;52589.97;5000096;28;20088;-73
2023/06/11 07:05:34;;;;;;;9.80;4.05;;;;;;;-144.47;43.38;52617.75;5003318;28;20407;-72
2023/06/11 07:08:00;;;;;;;7.90;4.28;;;;;;;-144.47;43.67;52603.84;5003336;28;20530;-71
2023/06/11 07:10:25;;;;;;;8.85;4.03;;;;;;;-144.47;43.07;52623.72;5004185;28;20030;-75
2023/06/11 07:12:51;;;;;;;12.32;4.00;;;;;;;-144.47;42.78;52627.69;5006683;28;20036;-75
2023/06/11 07:15:16;;;;;;;13.00;4.35;;;;;;;-144.47;43.37;52601.88;5007661;28;20088;-70
2023/06/11 07:17:41;;;;;;;8.88;3.95;;;;;;;-144.47;43.19;52657.47;5008698;28;20033;-67
2023/06/11 07:20:07;;;;;;;21.55;3.90;;;;;;;-144.47;43.10;52607.84;5008766;28;20061;-70
2023/06/11 07:22:33;;;;;;;7.88;3.80;;;;;;;-144.47;42.93;52589.97;5006250;28;20045;-69
2023/06/11 07:25:00;;;;;;;11.43;4.13;;;;;;;-144.47;43.60;52613.78;5005723;28;20095;-72
2023/06/11 07:27:27;;;;;;;8.50;3.72;;;;;;;-144.47;43.12;52631.66;5009656;28;20022;-72
2023/06/11 07:29:52;;;;;;;9.95;3.55;;;;;;;-144.47;43.20;52643.56;5009173;28;20022;-72
2023/06/11 07:32:20;;;;;;;9.85;3.50;;;;;;;-144.47;43.11;52613.78;5002011;28;20102;-69
2023/06/11 07:34:45;;;;;;;9.87;3.73;;;;;;;-144.47;43.09;52603.84;5002936;28;20551;-70
2023/06/11 07:37:10;;;;;;;16.50;4.38;;;;;;;-144.47;43.59;52611.81;5008806;28;20362;-70
2023/06/11 07:39:36;;;;;;;10.85;3.88;;;;;;;-144.47;43.13;52627.69;5008449;28;20026;-69
2023/06/11 07:42:03;;;;;;;16.38;3.97;;;;;;;-144.47;42.22;52599.88;5007998;28;20120;-70
2023/06/11 07:44:28;;;;;;;22.15;5.18;;;;;;;-144.47;42.63;52609.81;5006628;28;20407;-68
2023/06/11 07:46:54;;;;;;;13.35;3.75;;;;;;;-144.47;43.19;52629.69;5007523;28;20033;-70
2023/06/11 07:49:19;;;;;;;12.45;4.10;;;;;;;-144.47;42.75;52593.94;5002001;28;20032;-72
2023/06/11 07:51:46;;;;;;;9.95;4.15;;;;;;;-144.47;42.80;52629.69;5006974;28;20022;-71
2023/06/11 07:54:11;;;;;;;12.30;4.18;;;;;;;-144.47;42.83;52631.66;5007621;28;20101;-70
2023/06/11 07:56:37;;;;;;;17.08;4.57;;;;;;;-144.47;42.70;52631.66;5007426;28;20573;-69
2023/06/11 07:59:02;;;;;;;7.93;3.92;;;;;;;-144.47;42.96;52617.75;5008926;28;20026;-71
2023/06/11 08:01:28;;;;;;;7.38;4.00;;;;;;;-144.47;42.36;52611.81;5007665;28;20052;-68
2023/06/11 08:03:54;;;;;;;10.63;3.78;;;;;;;-144.47;42.00;52619.75;5007582;28;20030;-69
2023/06/11 08:06:20;;;;;;;9.90;3.85;;;;;;;-144.47;41.67;52635.63;5006284;28;20026;-71
2023/06/11 08:08:47;;;;;;;10.48;3.95;;;;;;;-144.47;42.09;52625.72;5008065;28;20026;-70
2023/06/11 08:11:13;;;;;;;8.30;4.53;;;;;;;-144.47;41.10;52641.59;5006231;28;20044;-71
2023/06/11 08:13:40;;;;;;;19.50;4.75;;;;;;;-144.47;41.35;52627.69;5007066;28;20527;-70
2023/06/11 08:16:09;;;;;;;7.68;3.60;;;;;;;-144.47;41.57;52621.72;5007531;28;20052;-70
2023/06/11 08:18:34;;;;;;;7.80;3.78;;;;;;;-144.47;41.03;52645.56;5009071;28;20049;-68
2023/06/11 08:21:00;;;;;;;6.38;3.85;;;;;;;-144.47;40.30;52663.44;5011065;28;20053;-69
2023/06/11 08:23:26;;;;;;;14.52;4.00;;;;;;;-144.47;40.53;52631.66;5011958;28;20061;-70
2023/06/11 08:25:51;;;;;;;13.68;4.43;;;;;;;-144.47;40.37;52631.66;5008017;28;20057;-71
2023/06/11 08:28:17;;;;;;;6.88;3.58;;;;;;;-144.47;40.01;52611.81;5006393;28;20030;-69
2023/06/11 08:30:42;;;;;;;11.93;4.13;;;;;;;-144.47;40.39;52641.59;5009831;28;20045;-69
2023/06/11 08:33:08;;;;;;;8.85;4.50;;;;;;;-144.47;39.96;52631.66;5008925;28;20121;-68
2023/06/11 08:35:34;;;;;;;7.75;3.50;;;;;;;-144.47;40.43;52631.66;5008059;28;20030;-70
2023/06/11 08:37:59;;;;;;;7.57;3.85;;;;;;;-144.47;40.18;52639.59;5007769;28;20037;-72
2023/06/11 08:40:25;;;;;;;8.10;3.58;;;;;;;-144.47;40.33;52645.56;5011510;28;20026;-71
2023/06/11 08:42:50;;;;;;;13.15;5.10;;;;;;;-144.47;40.14;52635.63;5007928;28;20033;-70
2023/06/11 08:45:16;;;;;;;14.50;3.70;;;;;;;-144.47;39.43;52647.56;5002750;28;20081;-73
2023/06/11 08:47:49;;;;;;;6.97;3.67;;;;;;;-144.47;39.06;52649.53;5009129;28;20052;-69
2023/06/11 08:50:16;;;;;;;20.08;4.00;;;;;;;-144.47;38.44;52641.59;5010605;28;20029;-72
2023/06/11 08:52:42;;;;;;;8.55;3.47;;;;;;;-144.47;38.39;52671.38;5006705;28;20026;-72
2023/06/11 08:55:09;;;;;;;10.68;4.32;;;;;;;-144.47;38.27;52627.69;5009804;28;20030;-70
2023/06/11 08:57:34;;;;;;;7.78;3.60;;;;;;;-144.47;38.29;52649.53;5009750;28;20079;-71
2023/06/11 08:59:59;;;;;;;10.93;3.80;;;;;;;-144.47;38.04;52647.56;5009267;28;20480;-71
2023/06/11 09:02:25;;;;;;;7.75;3.50;;;;;;;-144.47;37.22;52625.72;5010792;28;20116;-72
2023/06/11 09:04:51;;;;;;;7.35;3.50;;;;;;;-144.47;37.30;52643.56;5009835;28;20265;-75
2023/06/11 09:07:25;;;;;;;10.30;3.60;;;;;;;-144.47;36.17;52651.53;5010370;28;20113;-74
2023/06/11 09:10:07;;;;;;;11.60;4.10;;;;;;;-144.47;36.01;52635.63;5007280;28;20121;-67
2023/06/11 09:12:33;;;;;;;8.18;3.72;;;;;;;-144.47;36.30;52673.38;5006319;28;20581;-72
2023/06/11 09:14:58;;;;;;;15.13;4.15;;;;;;;-144.47;35.44;52635.63;5010045;28;20026;-67
2023/06/11 09:17:26;;;;;;;10.50;3.70;;;;;;;-144.47;35.26;52635.63;5010654;28;20452;-70
2023/06/11 09:19:54;;;;;;;10.52;3.92;;;;;;;-144.47;35.59;52667.41;5006585;28;20026;-67
2023/06/11 09:22:26;;;;;;;12.18;3.88;;;;;;;-144.47;34.62;52651.53;5011044;28;20435;-68
2023/06/11 09:24:52;;;;;;;8.73;3.38;;;;;;;-144.47;34.88;52657.47;5010366;28;20030;-68
2023/06/11 09:27:20;;;;;;;11.25;3.35;;;;;;;-144.47;35.15;52647.56;5010128;28;20029;-68
2023/06/11 09:29:46;;;;;;;9.38;3.35;;;;;;;-144.47;34.71;52625.72;5010654;28;20026;-69
2023/06/11 09:32:12;;;;;;;8.50;3.35;;;;;;;-144.47;34.81;52649.53;5010292;28;20078;-66
2023/06/11 09:34:37;;;;;;;10.55;3.70;;;;;;;-144.47;33.75;52657.47;5010385;28;20018;-72
2023/06/11 09:37:03;;;;;;;7.65;3.25;;;;;;;-144.47;32.39;52671.38;5011159;28;20025;-66
2023/06/11 09:39:29;;;;;;;11.77;3.78;;;;;;;-144.47;32.90;52649.53;5011190;28;20113;-70
2023/06/11 09:41:54;;;;;;;7.50;3.72;;;;;;;-144.47;33.00;52653.50;5010869;28;20105;-68
2023/06/11 09:44:20;;;;;;;22.95;3.75;;;;;;;-144.47;32.78;52653.50;5007871;28;20050;-70
2023/06/11 09:46:49;;;;;;;11.15;3.58;;;;;;;-144.47;32.94;52649.53;5010567;28;20538;-68
2023/06/11 09:49:16;;;;;;;7.55;3.25;;;;;;;-144.47;32.43;52675.34;5009969;28;20116;-74
2023/06/11 09:51:43;;;;;;;10.93;3.45;;;;;;;-144.47;33.13;52681.31;5008186;28;20074;-69
2023/06/11 09:54:15;;;;;;;5.50;3.03;;;;;;;-144.47;32.33;52655.50;5008822;28;20155;-70
2023/06/11 09:56:42;;;;;;;10.43;3.47;;;;;;;-144.47;31.30;52651.53;5009097;28;20030;-68
2023/06/11 09:59:10;;;;;;;8.43;3.40;;;;;;;-144.47;31.43;52651.53;5010806;28;20022;-70
2023/06/11 10:01:37;;;;;;;6.28;2.83;;;;;;;-144.47;31.48;52677.34;5009452;28;20029;-69
2023/06/11 10:04:02;;;;;;;6.90;3.35;;;;;;;-144.47;31.08;52643.56;5008810;28;20116;-68
2023/06/11 10:06:35;;;;;;;7.25;3.47;;;;;;;-144.47;31.56;52657.47;5010548;28;20152;-70
2023/06/11 10:09:07;;;;;;;8.82;3.67;;;;;;;-144.47;31.56;52639.59;5010357;28;20030;-67
2023/06/11 10:11:40;;;;;;;9.18;3.63;;;;;;;-144.47;32.19;52677.34;5010132;28;20036;-69
2023/06/11 10:14:14;;;;;;;9.30;3.58;;;;;;;-144.47;32.75;52649.53;5009858;28;20117;-73
2023/06/11 10:16:39;;;;;;;7.60;3.45;;;;;;;-144.47;32.60;52665.44;5008437;28;20030;-71
2023/06/11 10:19:09;;;;;;;11.50;3.70;;;;;;;-144.47;32.35;52659.47;5008696;28;20133;-69
2023/06/11 10:21:44;;;;;;;9.25;3.80;;;;;;;-144.47;33.19;52689.25;5009964;28;20056;-69
2023/06/11 10:24:29;;;;;;;10.50;3.60;;;;;;;-144.47;33.07;52641.59;5010552;28;20041;-69
2023/06/11 10:27:05;;;;;;;9.95;3.88;;;;;;;-144.47;33.59;52687.28;5008573;28;20034;-68
2023/06/11 10:29:37;;;;;;;8.32;3.53;;;;;;;-144.47;33.62;52653.50;5009968;28;20032;-71
2023/06/11 10:32:02;;;;;;;7.88;3.60;;;;;;;-144.47;33.72;52687.28;5009287;28;20546;-70
2023/06/11 10:34:38;;;;;;;8.02;3.33;;;;;;;-144.47;33.54;52691.25;5009676;28;20030;-68
2023/06/11 10:37:04;;;;;;;11.10;4.22;;;;;;;-144.47;34.32;52677.34;5010320;28;20514;-70
2023/06/11 10:39:30;;;;;;;13.25;3.70;;;;;;;-144.47;34.07;52701.19;5009616;28;20034;-71
2023/06/11 10:42:00;;;;;;;7.80;4.10;;;;;;;-144.47;33.65;52675.34;5020364;23;20060;-74
2023/06/11 10:44:26;;;;;;;9.30;3.95;;;;;;;-144.47;33.49;52683.31;5007562;28;20036;-72
2023/06/11 10:46:53;;;;;;;7.85;3.95;;;;;;;-144.47;33.58;52685.28;5008810;28;20026;-68
2023/06/11 10:49:26;;;;;;;11.80;3.90;;;;;;;-144.47;33.47;52679.31;5006692;28;20030;-74
2023/06/11 10:51:52;;;;;;;6.93;3.60;;;;;;;-144.47;33.52;52685.28;4996014;28;20441;-73
2023/06/11 10:54:32;;;;;;;13.10;4.13;;;;;;;-144.47;32.98;52691.25;4987627;28;20109;-73
2023/06/11 10:56:59;;;;;;;7.07;3.53;;;;;;;-144.47;33.69;52703.16;4988408;28;20452;-74
2023/06/11 10:59:25;;;;;;;6.35;3.30;;;;;;;-144.47;33.35;52689.25;5001021;28;20512;-71
2023/06/11 11:01:54;;;;;;;8.30;3.45;;;;;;;-144.47;33.13;52693.22;4986655;28;20072;-73
2023/06/11 11:04:23;;;;;;;8.75;3.60;;;;;;;-144.47;32.85;52699.19;4988133;28;20073;-75
2023/06/11 11:06:52;;;;;;;11.80;4.03;;;;;;;-144.47;32.92;52675.34;4988448;28;20109;-70
2023/06/11 11:09:22;;;;;;;8.52;3.85;;;;;;;-144.47;32.21;52701.19;4988097;28;20109;-72
2023/06/11 11:11:50;;;;;;;8.48;3.35;;;;;;;-144.47;31.34;52671.38;4982979;28;20022;-71
2023/06/11 11:14:19;;;;;;;8.32;3.90;;;;;;;-144.47;32.04;52665.44;4986966;28;20590;-74